sensor_id;sensor_type;location;lat;lon;timestamp;pressure;altitude;pressure_sealevel;temperature;humidity
17649;BME280;8943;51.110;-4.158;2023-12-14T00:01:25;101445.13;;;8.89;53.53
17649;BME280;8943;51.110;-4.158;2023-12-14T00:03:56;101449.41;;;8.91;53.29
17649;BME280;8943;51.110;-4.158;2023-12-14T00:06:24;101448.13;;;8.98;53.63
17649;BME280;8943;51.110;-4.158;2023-12-14T00:08:53;101453.09;;;9.05;53.34
17649;BME280;8943;51.110;-4.158;2023-12-14T00:11:21;101455.41;;;9.11;53.34
17649;BME280;8943;51.110;-4.158;2023-12-14T00:13:50;101444.44;;;9.17;53.60
17649;BME280;8943;51.110;-4.158;2023-12-14T00:16:20;101432.78;;;9.19;53.37
17649;BME280;8943;51.110;-4.158;2023-12-14T00:18:49;101432.63;;;9.22;53.41
17649;BME280;8943;51.110;-4.158;2023-12-14T00:21:17;101448.28;;;9.27;53.23
17649;BME280;8943;51.110;-4.158;2023-12-14T00:23:46;101456.25;;;9.27;53.20
17649;BME280;8943;51.110;-4.158;2023-12-14T00:26:14;101452.69;;;9.28;53.37
17649;BME280;8943;51.110;-4.158;2023-12-14T00:28:44;101452.69;;;9.28;53.16
17649;BME280;8943;51.110;-4.158;2023-12-14T00:31:12;101456.19;;;9.28;53.29
17649;BME280;8943;51.110;-4.158;2023-12-14T00:33:42;101454.56;;;9.26;53.19
17649;BME280;8943;51.110;-4.158;2023-12-14T00:36:17;101458.00;;;9.28;53.30
17649;BME280;8943;51.110;-4.158;2023-12-14T00:38:46;101454.41;;;9.29;53.65
17649;BME280;8943;51.110;-4.158;2023-12-14T00:41:14;101450.69;;;9.32;53.29
17649;BME280;8943;51.110;-4.158;2023-12-14T00:43:42;101471.63;;;9.38;53.44
17649;BME280;8943;51.110;-4.158;2023-12-14T00:46:11;101472.13;;;9.44;53.46
17649;BME280;8943;51.110;-4.158;2023-12-14T00:48:41;101466.56;;;9.49;53.34
17649;BME280;8943;51.110;-4.158;2023-12-14T00:51:10;101462.78;;;9.53;53.58
17649;BME280;8943;51.110;-4.158;2023-12-14T00:53:38;101476.69;;;9.58;53.48
17649;BME280;8943;51.110;-4.158;2023-12-14T00:56:08;101477.44;;;9.60;53.06
17649;BME280;8943;51.110;-4.158;2023-12-14T00:58:37;101489.72;;;9.63;53.39
17649;BME280;8943;51.110;-4.158;2023-12-14T01:01:05;101489.53;;;9.66;53.37
17649;BME280;8943;51.110;-4.158;2023-12-14T01:03:34;101485.16;;;9.65;53.52
17649;BME280;8943;51.110;-4.158;2023-12-14T01:06:04;101491.06;;;9.70;53.74
17649;BME280;8943;51.110;-4.158;2023-12-14T01:08:33;101473.72;;;9.78;53.56
17649;BME280;8943;51.110;-4.158;2023-12-14T01:11:02;101468.97;;;9.84;53.53
17649;BME280;8943;51.110;-4.158;2023-12-14T01:13:31;101464.16;;;9.90;53.35
17649;BME280;8943;51.110;-4.158;2023-12-14T01:15:59;101463.03;;;9.94;53.18
17649;BME280;8943;51.110;-4.158;2023-12-14T01:18:27;101462.00;;;9.97;53.34
17649;BME280;8943;51.110;-4.158;2023-12-14T01:20:56;101447.75;;;9.98;53.37
17649;BME280;8943;51.110;-4.158;2023-12-14T01:23:26;101447.56;;;10.01;53.47
17649;BME280;8943;51.110;-4.158;2023-12-14T01:25:54;101441.00;;;10.06;53.52
17649;BME280;8943;51.110;-4.158;2023-12-14T01:28:22;101443.41;;;10.11;53.54
17649;BME280;8943;51.110;-4.158;2023-12-14T01:30:51;101433.50;;;10.13;53.33
17649;BME280;8943;51.110;-4.158;2023-12-14T01:33:19;101434.28;;;10.15;53.60
17649;BME280;8943;51.110;-4.158;2023-12-14T01:35:48;101443.19;;;10.14;53.71
17649;BME280;8943;51.110;-4.158;2023-12-14T01:38:16;101443.13;;;10.16;53.42
17649;BME280;8943;51.110;-4.158;2023-12-14T01:40:46;101452.72;;;10.18;53.84
17649;BME280;8943;51.110;-4.158;2023-12-14T01:43:15;101479.09;;;10.23;53.85
17649;BME280;8943;51.110;-4.158;2023-12-14T01:45:43;101483.56;;;10.22;53.52
17649;BME280;8943;51.110;-4.158;2023-12-14T01:48:12;101471.09;;;10.23;53.58
17649;BME280;8943;51.110;-4.158;2023-12-14T01:50:40;101474.47;;;10.26;53.92
17649;BME280;8943;51.110;-4.158;2023-12-14T01:53:09;101470.47;;;10.34;53.77
17649;BME280;8943;51.110;-4.158;2023-12-14T01:55:38;101477.16;;;10.41;53.76
17649;BME280;8943;51.110;-4.158;2023-12-14T01:58:09;101473.16;;;10.48;53.80
17649;BME280;8943;51.110;-4.158;2023-12-14T02:00:42;101486.41;;;10.49;53.44
17649;BME280;8943;51.110;-4.158;2023-12-14T02:03:14;101492.88;;;10.45;53.76
17649;BME280;8943;51.110;-4.158;2023-12-14T02:05:43;101507.31;;;10.41;53.36
17649;BME280;8943;51.110;-4.158;2023-12-14T02:08:11;101508.53;;;10.36;53.74
17649;BME280;8943;51.110;-4.158;2023-12-14T02:10:40;101504.81;;;10.38;53.63
17649;BME280;8943;51.110;-4.158;2023-12-14T02:13:10;101502.00;;;10.41;53.50
17649;BME280;8943;51.110;-4.158;2023-12-14T02:15:38;101498.00;;;10.48;53.76
17649;BME280;8943;51.110;-4.158;2023-12-14T02:18:06;101498.28;;;10.58;53.90
17649;BME280;8943;51.110;-4.158;2023-12-14T02:20:35;101505.94;;;10.64;53.92
17649;BME280;8943;51.110;-4.158;2023-12-14T02:23:04;101517.06;;;10.71;53.61
17649;BME280;8943;51.110;-4.158;2023-12-14T02:25:34;101528.47;;;10.73;53.19
17649;BME280;8943;51.110;-4.158;2023-12-14T02:28:03;101529.25;;;10.75;53.50
17649;BME280;8943;51.110;-4.158;2023-12-14T02:30:31;101517.63;;;10.76;53.63
17649;BME280;8943;51.110;-4.158;2023-12-14T02:33:00;101513.06;;;10.78;53.92
17649;BME280;8943;51.110;-4.158;2023-12-14T02:35:28;101512.88;;;10.81;53.60
17649;BME280;8943;51.110;-4.158;2023-12-14T02:37:56;101517.19;;;10.83;53.79
17649;BME280;8943;51.110;-4.158;2023-12-14T02:40:26;101505.44;;;10.86;53.56
17649;BME280;8943;51.110;-4.158;2023-12-14T02:42:54;101507.94;;;10.89;53.69
17649;BME280;8943;51.110;-4.158;2023-12-14T02:45:23;101506.13;;;10.90;53.76
17649;BME280;8943;51.110;-4.158;2023-12-14T02:47:51;101508.69;;;10.91;53.45
17649;BME280;8943;51.110;-4.158;2023-12-14T02:50:21;101504.22;;;10.92;53.60
17649;BME280;8943;51.110;-4.158;2023-12-14T02:52:49;101506.88;;;10.92;53.60
17649;BME280;8943;51.110;-4.158;2023-12-14T02:55:18;101512.88;;;10.95;53.64
17649;BME280;8943;51.110;-4.158;2023-12-14T02:57:48;101520.69;;;10.98;53.63
17649;BME280;8943;51.110;-4.158;2023-12-14T03:00:18;101520.69;;;10.98;53.74
17649;BME280;8943;51.110;-4.158;2023-12-14T03:02:46;101520.59;;;11.00;53.88
17649;BME280;8943;51.110;-4.158;2023-12-14T03:05:15;101514.31;;;11.01;53.84
17649;BME280;8943;51.110;-4.158;2023-12-14T03:07:43;101515.94;;;11.03;53.76
17649;BME280;8943;51.110;-4.158;2023-12-14T03:10:12;101520.03;;;11.09;53.91
17649;BME280;8943;51.110;-4.158;2023-12-14T03:12:40;101525.06;;;11.14;53.88
17649;BME280;8943;51.110;-4.158;2023-12-14T03:15:11;101519.53;;;11.17;53.48
17649;BME280;8943;51.110;-4.158;2023-12-14T03:17:39;101518.38;;;11.21;53.50
17649;BME280;8943;51.110;-4.158;2023-12-14T03:20:08;101508.28;;;11.26;53.58
17649;BME280;8943;51.110;-4.158;2023-12-14T03:22:37;101506.94;;;11.33;53.63
17649;BME280;8943;51.110;-4.158;2023-12-14T03:25:07;101506.72;;;11.36;53.47
17649;BME280;8943;51.110;-4.158;2023-12-14T03:27:36;101502.16;;;11.38;53.87
17649;BME280;8943;51.110;-4.158;2023-12-14T03:30:05;101511.69;;;11.42;53.46
17649;BME280;8943;51.110;-4.158;2023-12-14T03:32:38;101516.06;;;11.43;53.42
17649;BME280;8943;51.110;-4.158;2023-12-14T03:35:07;101519.47;;;11.45;53.50
17649;BME280;8943;51.110;-4.158;2023-12-14T03:37:36;101508.81;;;11.45;53.42
17649;BME280;8943;51.110;-4.158;2023-12-14T03:40:06;101500.59;;;11.48;53.65
17649;BME280;8943;51.110;-4.158;2023-12-14T03:42:35;101492.72;;;11.47;53.69
17649;BME280;8943;51.110;-4.158;2023-12-14T03:45:04;101491.63;;;11.49;53.59
17649;BME280;8943;51.110;-4.158;2023-12-14T03:47:33;101487.81;;;11.53;53.37
17649;BME280;8943;51.110;-4.158;2023-12-14T03:50:03;101484.00;;;11.57;53.72
17649;BME280;8943;51.110;-4.158;2023-12-14T03:52:31;101490.09;;;11.59;53.66
17649;BME280;8943;51.110;-4.158;2023-12-14T03:55:02;101491.78;;;11.60;53.41
17649;BME280;8943;51.110;-4.158;2023-12-14T03:57:30;101495.22;;;11.63;53.54
17649;BME280;8943;51.110;-4.158;2023-12-14T03:59:58;101498.66;;;11.65;53.71
17649;BME280;8943;51.110;-4.158;2023-12-14T04:02:27;101489.91;;;11.63;53.39
17649;BME280;8943;51.110;-4.158;2023-12-14T04:04:55;101490.75;;;11.63;53.66
17649;BME280;8943;51.110;-4.158;2023-12-14T04:07:25;101488.81;;;11.65;53.74
17649;BME280;8943;51.110;-4.158;2023-12-14T04:09:54;101498.44;;;11.68;53.61
17649;BME280;8943;51.110;-4.158;2023-12-14T04:12:22;101492.91;;;11.71;53.55
17649;BME280;8943;51.110;-4.158;2023-12-14T04:14:50;101498.03;;;11.74;53.63
17649;BME280;8943;51.110;-4.158;2023-12-14T04:17:19;101501.44;;;11.76;53.71
17649;BME280;8943;51.110;-4.158;2023-12-14T04:19:47;101507.47;;;11.79;53.32
17649;BME280;8943;51.110;-4.158;2023-12-14T04:22:16;101508.31;;;11.80;53.64
17649;BME280;8943;51.110;-4.158;2023-12-14T04:24:46;101510.97;;;11.80;53.23
17649;BME280;8943;51.110;-4.158;2023-12-14T04:27:14;101509.13;;;11.82;53.46
17649;BME280;8943;51.110;-4.158;2023-12-14T04:29:42;101500.88;;;11.85;53.60
17649;BME280;8943;51.110;-4.158;2023-12-14T04:32:11;101502.41;;;11.89;53.29
17649;BME280;8943;51.110;-4.158;2023-12-14T04:34:39;101497.72;;;11.93;53.64
17649;BME280;8943;51.110;-4.158;2023-12-14T04:37:08;101506.38;;;11.96;53.84
17649;BME280;8943;51.110;-4.158;2023-12-14T04:39:36;101504.47;;;11.98;53.23
17649;BME280;8943;51.110;-4.158;2023-12-14T04:42:07;101503.31;;;12.02;53.18
17649;BME280;8943;51.110;-4.158;2023-12-14T04:44:35;101502.53;;;12.00;53.47
17649;BME280;8943;51.110;-4.158;2023-12-14T04:47:04;101505.00;;;12.03;53.56
17649;BME280;8943;51.110;-4.158;2023-12-14T04:49:33;101505.00;;;12.03;53.64
17649;BME280;8943;51.110;-4.158;2023-12-14T04:52:02;101496.03;;;12.04;53.31
17649;BME280;8943;51.110;-4.158;2023-12-14T04:54:38;101496.03;;;12.04;53.73
17649;BME280;8943;51.110;-4.158;2023-12-14T05:04:29;101468.03;;;12.10;53.39
17649;BME280;8943;51.110;-4.158;2023-12-14T05:09:34;101474.88;;;12.14;53.53
17649;BME280;8943;51.110;-4.158;2023-12-14T05:12:25;101475.75;;;12.15;53.58
17649;BME280;8943;51.110;-4.158;2023-12-14T05:15:05;101470.31;;;12.16;53.69
17649;BME280;8943;51.110;-4.158;2023-12-14T05:17:46;101473.84;;;12.17;53.58
17649;BME280;8943;51.110;-4.158;2023-12-14T05:20:27;101482.81;;;12.16;53.85
17649;BME280;8943;51.110;-4.158;2023-12-14T05:22:58;101486.22;;;12.18;53.67
17649;BME280;8943;51.110;-4.158;2023-12-14T05:25:43;101481.84;;;12.17;53.83
17649;BME280;8943;51.110;-4.158;2023-12-14T05:28:19;101480.03;;;12.17;53.97
17649;BME280;8943;51.110;-4.158;2023-12-14T05:31:15;101471.16;;;12.17;53.66
17649;BME280;8943;51.110;-4.158;2023-12-14T05:33:45;101470.94;;;12.20;53.98
17649;BME280;8943;51.110;-4.158;2023-12-14T05:36:20;101476.81;;;12.25;54.01
17649;BME280;8943;51.110;-4.158;2023-12-14T05:39:04;101473.09;;;12.27;53.81
17649;BME280;8943;51.110;-4.158;2023-12-14T05:41:40;101473.84;;;12.29;54.14
17649;BME280;8943;51.110;-4.158;2023-12-14T05:44:39;101474.50;;;12.33;53.86
17649;BME280;8943;51.110;-4.158;2023-12-14T05:47:35;101480.38;;;12.38;53.81
17649;BME280;8943;51.110;-4.158;2023-12-14T05:50:31;101483.69;;;12.42;53.70
17649;BME280;8943;51.110;-4.158;2023-12-14T05:53:15;101477.50;;;12.41;53.86
17649;BME280;8943;51.110;-4.158;2023-12-14T05:55:44;101485.28;;;12.44;53.78
17649;BME280;8943;51.110;-4.158;2023-12-14T05:58:14;101483.59;;;12.43;53.78
17649;BME280;8943;51.110;-4.158;2023-12-14T06:00:43;101475.38;;;12.46;53.84
17649;BME280;8943;51.110;-4.158;2023-12-14T06:03:13;101475.16;;;12.49;53.62
17649;BME280;8943;51.110;-4.158;2023-12-14T06:05:45;101466.19;;;12.50;53.99
17649;BME280;8943;51.110;-4.158;2023-12-14T06:08:15;101480.28;;;12.52;54.09
17649;BME280;8943;51.110;-4.158;2023-12-14T06:10:44;101478.13;;;12.57;54.16
17649;BME280;8943;51.110;-4.158;2023-12-14T06:13:13;101466.38;;;12.60;54.28
17649;BME280;8943;51.110;-4.158;2023-12-14T06:15:42;101477.63;;;12.65;54.10
17649;BME280;8943;51.110;-4.158;2023-12-14T06:18:11;101482.00;;;12.66;54.19
17649;BME280;8943;51.110;-4.158;2023-12-14T06:20:40;101473.66;;;12.71;54.50
17649;BME280;8943;51.110;-4.158;2023-12-14T06:23:08;101475.16;;;12.75;54.28
17649;BME280;8943;51.110;-4.158;2023-12-14T06:25:38;101482.00;;;12.79;54.34
17649;BME280;8943;51.110;-4.158;2023-12-14T06:28:07;101483.47;;;12.83;54.23
17649;BME280;8943;51.110;-4.158;2023-12-14T06:30:35;101481.44;;;12.86;54.29
17649;BME280;8943;51.110;-4.158;2023-12-14T06:33:04;101493.75;;;12.89;54.25
17649;BME280;8943;51.110;-4.158;2023-12-14T06:35:32;101496.31;;;12.91;54.54
17649;BME280;8943;51.110;-4.158;2023-12-14T06:38:01;101491.59;;;12.94;54.36
17649;BME280;8943;51.110;-4.158;2023-12-14T06:40:29;101491.59;;;12.94;54.65
17649;BME280;8943;51.110;-4.158;2023-12-14T06:42:59;101479.16;;;12.93;54.56
17649;BME280;8943;51.110;-4.158;2023-12-14T06:45:28;101491.59;;;12.94;54.58
17649;BME280;8943;51.110;-4.158;2023-12-14T06:48:02;101491.59;;;12.94;54.40
17649;BME280;8943;51.110;-4.158;2023-12-14T06:50:31;101506.69;;;12.95;54.49
17649;BME280;8943;51.110;-4.158;2023-12-14T06:53:00;101498.66;;;12.95;54.56
17649;BME280;8943;51.110;-4.158;2023-12-14T06:55:28;101495.00;;;12.96;54.71
17649;BME280;8943;51.110;-4.158;2023-12-14T06:58:00;101491.16;;;13.00;54.78
17649;BME280;8943;51.110;-4.158;2023-12-14T07:00:29;101500.78;;;13.03;54.74
17649;BME280;8943;51.110;-4.158;2023-12-14T07:02:58;101501.22;;;13.09;55.13
17649;BME280;8943;51.110;-4.158;2023-12-14T07:05:27;101501.59;;;13.16;54.94
17649;BME280;8943;51.110;-4.158;2023-12-14T07:07:56;101488.88;;;13.20;55.10
17649;BME280;8943;51.110;-4.158;2023-12-14T07:10:25;101495.63;;;13.25;54.69
17649;BME280;8943;51.110;-4.158;2023-12-14T07:12:54;101501.63;;;13.29;54.81
17649;BME280;8943;51.110;-4.158;2023-12-14T07:15:25;101493.59;;;13.29;54.74
17649;BME280;8943;51.110;-4.158;2023-12-14T07:17:53;101497.34;;;13.26;55.06
17649;BME280;8943;51.110;-4.158;2023-12-14T07:20:23;101501.63;;;13.29;54.82
17649;BME280;8943;51.110;-4.158;2023-12-14T07:22:53;101497.34;;;13.26;54.65
17649;BME280;8943;51.110;-4.158;2023-12-14T07:25:22;101491.25;;;13.24;54.89
17649;BME280;8943;51.110;-4.158;2023-12-14T07:27:50;101496.47;;;13.26;55.01
17649;BME280;8943;51.110;-4.158;2023-12-14T07:30:19;101486.63;;;13.26;55.00
17649;BME280;8943;51.110;-4.158;2023-12-14T07:32:50;101490.91;;;13.29;55.04
17649;BME280;8943;51.110;-4.158;2023-12-14T07:35:19;101491.78;;;13.29;55.01
17649;BME280;8943;51.110;-4.158;2023-12-14T07:37:48;101495.94;;;13.33;54.95
17649;BME280;8943;51.110;-4.158;2023-12-14T07:40:16;101503.84;;;13.35;54.89
17649;BME280;8943;51.110;-4.158;2023-12-14T07:42:45;101506.31;;;13.38;55.41
17649;BME280;8943;51.110;-4.158;2023-12-14T07:45:13;101510.56;;;13.40;55.18
17649;BME280;8943;51.110;-4.158;2023-12-14T07:47:42;101514.88;;;13.43;55.21
17649;BME280;8943;51.110;-4.158;2023-12-14T07:50:13;101519.97;;;13.46;55.25
17649;BME280;8943;51.110;-4.158;2023-12-14T07:52:42;101518.06;;;13.48;55.21
17649;BME280;8943;51.110;-4.158;2023-12-14T07:55:11;101517.81;;;13.51;55.06
17649;BME280;8943;51.110;-4.158;2023-12-14T07:57:40;101511.53;;;13.52;55.21
17649;BME280;8943;51.110;-4.158;2023-12-14T08:00:09;101519.56;;;13.52;55.41
17649;BME280;8943;51.110;-4.158;2023-12-14T08:02:38;101509.56;;;13.54;55.29
17649;BME280;8943;51.110;-4.158;2023-12-14T08:32:26;101550.44;;;13.69;55.91
17649;BME280;8943;51.110;-4.158;2023-12-14T08:37:36;101549.63;;;13.80;55.79
17649;BME280;8943;51.110;-4.158;2023-12-14T08:40:19;101549.41;;;13.83;55.77
17649;BME280;8943;51.110;-4.158;2023-12-14T08:42:49;101556.34;;;13.85;55.76
17649;BME280;8943;51.110;-4.158;2023-12-14T08:45:20;101554.31;;;13.89;55.90
17649;BME280;8943;51.110;-4.158;2023-12-14T08:47:51;101559.47;;;13.92;55.95
17649;BME280;8943;51.110;-4.158;2023-12-14T08:50:20;101568.00;;;13.97;55.90
17649;BME280;8943;51.110;-4.158;2023-12-14T08:52:49;101563.16;;;14.02;55.93
17649;BME280;8943;51.110;-4.158;2023-12-14T08:55:20;101565.72;;;14.04;56.02
17649;BME280;8943;51.110;-4.158;2023-12-14T08:57:51;101567.34;;;14.06;56.03
17649;BME280;8943;51.110;-4.158;2023-12-14T09:00:20;101571.72;;;14.07;56.34
17649;BME280;8943;51.110;-4.158;2023-12-14T09:03:01;101567.72;;;14.13;56.13
17649;BME280;8943;51.110;-4.158;2023-12-14T09:05:31;101563.97;;;14.15;56.07
17649;BME280;8943;51.110;-4.158;2023-12-14T09:08:33;101576.03;;;14.21;56.27
17649;BME280;8943;51.110;-4.158;2023-12-14T09:11:35;101565.94;;;14.25;56.30
17649;BME280;8943;51.110;-4.158;2023-12-14T09:14:29;101571.56;;;14.33;56.55
17649;BME280;8943;51.110;-4.158;2023-12-14T09:27:23;101598.41;;;14.68;56.40
17649;BME280;8943;51.110;-4.158;2023-12-14T09:32:59;101601.75;;;14.83;56.21
17649;BME280;8943;51.110;-4.158;2023-12-14T09:50:21;101634.13;;;15.15;57.00
17649;BME280;8943;51.110;-4.158;2023-12-14T09:53:13;101641.84;;;15.31;57.09
17649;BME280;8943;51.110;-4.158;2023-12-14T09:56:24;101653.09;;;15.47;57.45
17649;BME280;8943;51.110;-4.158;2023-12-14T09:59:32;101663.81;;;15.58;57.67
17649;BME280;8943;51.110;-4.158;2023-12-14T10:02:44;101675.44;;;15.70;57.42
17649;BME280;8943;51.110;-4.158;2023-12-14T10:05:54;101679.97;;;15.81;57.78
17649;BME280;8943;51.110;-4.158;2023-12-14T10:08:25;101689.03;;;15.91;57.62
17649;BME280;8943;51.110;-4.158;2023-12-14T10:10:56;101687.53;;;15.98;57.92
17649;BME280;8943;51.110;-4.158;2023-12-14T10:13:39;101695.72;;;16.08;58.18
17649;BME280;8943;51.110;-4.158;2023-12-14T10:16:12;101706.34;;;16.20;58.31
17649;BME280;8943;51.110;-4.158;2023-12-14T10:21:36;101701.66;;;16.22;58.52
17649;BME280;8943;51.110;-4.158;2023-12-14T10:24:18;101702.88;;;16.30;58.49
17649;BME280;8943;51.110;-4.158;2023-12-14T10:26:50;101705.06;;;16.36;58.20
17649;BME280;8943;51.110;-4.158;2023-12-14T10:29:22;101713.63;;;16.41;58.13
17649;BME280;8943;51.110;-4.158;2023-12-14T10:31:58;101714.69;;;16.50;57.74
17649;BME280;8943;51.110;-4.158;2023-12-14T10:34:54;101714.56;;;16.51;58.10
17649;BME280;8943;51.110;-4.158;2023-12-14T10:37:29;101718.34;;;16.48;58.12
17649;BME280;8943;51.110;-4.158;2023-12-14T10:40:16;101719.09;;;16.51;58.04
17649;BME280;8943;51.110;-4.158;2023-12-14T10:42:49;101723.47;;;16.52;58.10
17649;BME280;8943;51.110;-4.158;2023-12-14T10:45:20;101722.34;;;16.54;57.92
17649;BME280;8943;51.110;-4.158;2023-12-14T10:47:52;101716.25;;;16.52;57.68
17649;BME280;8943;51.110;-4.158;2023-12-14T10:50:21;101720.94;;;16.50;57.71
17649;BME280;8943;51.110;-4.158;2023-12-14T10:52:53;101720.31;;;16.46;57.74
17649;BME280;8943;51.110;-4.158;2023-12-14T10:55:31;101721.41;;;16.44;57.41
17649;BME280;8943;51.110;-4.158;2023-12-14T10:58:12;101719.00;;;16.41;57.75
17649;BME280;8943;51.110;-4.158;2023-12-14T11:00:59;101716.53;;;16.38;57.79
17649;BME280;8943;51.110;-4.158;2023-12-14T11:03:33;101715.56;;;16.39;57.92
17649;BME280;8943;51.110;-4.158;2023-12-14T11:06:01;101723.25;;;16.43;58.07
17649;BME280;8943;51.110;-4.158;2023-12-14T11:08:44;101734.25;;;16.52;57.84
17649;BME280;8943;51.110;-4.158;2023-12-14T11:11:16;101743.16;;;16.52;58.14
17649;BME280;8943;51.110;-4.158;2023-12-14T11:14:02;101737.53;;;16.55;57.62
17649;BME280;8943;51.110;-4.158;2023-12-14T11:16:34;101727.03;;;16.52;57.64
17649;BME280;8943;51.110;-4.158;2023-12-14T11:19:30;101743.41;;;16.60;57.00
17649;BME280;8943;51.110;-4.158;2023-12-14T11:22:47;101753.03;;;16.63;57.58
17649;BME280;8943;51.110;-4.158;2023-12-14T11:25:35;101763.06;;;16.72;57.37
17649;BME280;8943;51.110;-4.158;2023-12-14T11:28:11;101761.25;;;16.72;57.39
17649;BME280;8943;51.110;-4.158;2023-12-14T11:30:43;101763.19;;;16.70;57.17
17649;BME280;8943;51.110;-4.158;2023-12-14T11:33:22;101764.28;;;16.68;56.69
17649;BME280;8943;51.110;-4.158;2023-12-14T11:35:52;101757.94;;;16.69;56.68
17649;BME280;8943;51.110;-4.158;2023-12-14T11:38:55;101762.72;;;16.65;56.86
17649;BME280;8943;51.110;-4.158;2023-12-14T11:45:07;101761.47;;;16.81;56.82
17649;BME280;8943;51.110;-4.158;2023-12-14T11:47:35;101763.34;;;17.01;57.09
17649;BME280;8943;51.110;-4.158;2023-12-14T11:50:06;101766.63;;;17.05;56.55
17649;BME280;8943;51.110;-4.158;2023-12-14T11:52:36;101760.59;;;17.12;56.63
17649;BME280;8943;51.110;-4.158;2023-12-14T11:55:05;101781.75;;;17.17;56.41
17649;BME280;8943;51.110;-4.158;2023-12-14T11:57:34;101764.63;;;17.18;55.86
17649;BME280;8943;51.110;-4.158;2023-12-14T12:00:07;101772.28;;;17.22;56.19
17649;BME280;8943;51.110;-4.158;2023-12-14T12:02:36;101760.88;;;17.30;56.03
17649;BME280;8943;51.110;-4.158;2023-12-14T12:05:12;101771.13;;;17.36;55.98
17649;BME280;8943;51.110;-4.158;2023-12-14T12:07:46;101770.00;;;17.39;55.98
17649;BME280;8943;51.110;-4.158;2023-12-14T12:10:15;101766.31;;;17.40;55.33
17649;BME280;8943;51.110;-4.158;2023-12-14T12:13:13;101768.88;;;17.41;55.88
17649;BME280;8943;51.110;-4.158;2023-12-14T12:15:44;101760.34;;;17.36;55.50
17649;BME280;8943;51.110;-4.158;2023-12-14T12:18:14;101765.72;;;17.36;55.54
17649;BME280;8943;51.110;-4.158;2023-12-14T12:20:44;101761.41;;;17.45;55.86
17649;BME280;8943;51.110;-4.158;2023-12-14T12:23:15;101755.34;;;17.53;55.86
17649;BME280;8943;51.110;-4.158;2023-12-14T12:28:21;101764.06;;;17.66;55.04
17649;BME280;8943;51.110;-4.158;2023-12-14T12:30:52;101747.63;;;17.69;55.37
17649;BME280;8943;51.110;-4.158;2023-12-14T12:33:22;101753.75;;;17.71;55.23
17649;BME280;8943;51.110;-4.158;2023-12-14T12:36:02;101742.94;;;17.71;55.21
17649;BME280;8943;51.110;-4.158;2023-12-14T12:38:31;101767.63;;;17.66;55.38
17649;BME280;8943;51.110;-4.158;2023-12-14T12:41:07;101775.44;;;17.69;54.69
17649;BME280;8943;51.110;-4.158;2023-12-14T12:43:36;101767.63;;;17.66;55.25
17649;BME280;8943;51.110;-4.158;2023-12-14T12:46:13;101774.22;;;17.73;55.23
17649;BME280;8943;51.110;-4.158;2023-12-14T12:48:54;101769.53;;;17.75;55.24
17649;BME280;8943;51.110;-4.158;2023-12-14T12:51:37;101780.78;;;17.81;55.09
17649;BME280;8943;51.110;-4.158;2023-12-14T12:54:07;101769.03;;;17.82;54.61
17649;BME280;8943;51.110;-4.158;2023-12-14T12:56:59;101778.88;;;17.71;54.16
17649;BME280;8943;51.110;-4.158;2023-12-14T13:00:35;101779.06;;;17.59;54.62
17649;BME280;8943;51.110;-4.158;2023-12-14T13:03:36;101789.66;;;17.50;54.41
17649;BME280;8943;51.110;-4.158;2023-12-14T13:09:15;101788.09;;;17.48;54.28
17649;BME280;8943;51.110;-4.158;2023-12-14T13:12:07;101785.97;;;17.51;54.30
17649;BME280;8943;51.110;-4.158;2023-12-14T13:14:55;101785.97;;;17.51;54.17
17649;BME280;8943;51.110;-4.158;2023-12-14T13:17:43;101791.56;;;17.39;54.53
17649;BME280;8943;51.110;-4.158;2023-12-14T13:20:55;101792.56;;;17.38;54.07
17649;BME280;8943;51.110;-4.158;2023-12-14T13:23:25;101810.00;;;17.22;53.98
17649;BME280;8943;51.110;-4.158;2023-12-14T13:26:02;101806.50;;;17.11;53.79
17649;BME280;8943;51.110;-4.158;2023-12-14T13:28:31;101802.88;;;17.01;54.28
17649;BME280;8943;51.110;-4.158;2023-12-14T13:31:01;101804.63;;;16.90;54.16
17649;BME280;8943;51.110;-4.158;2023-12-14T13:33:31;101809.06;;;16.80;54.40
17649;BME280;8943;51.110;-4.158;2023-12-14T13:36:13;101806.75;;;16.76;54.78
17649;BME280;8943;51.110;-4.158;2023-12-14T13:38:47;101810.16;;;16.66;55.05
17649;BME280;8943;51.110;-4.158;2023-12-14T13:41:34;101814.81;;;16.64;55.24
17649;BME280;8943;51.110;-4.158;2023-12-14T13:44:17;101813.59;;;16.57;55.68
17649;BME280;8943;51.110;-4.158;2023-12-14T13:46:47;101814.59;;;16.56;55.81
17649;BME280;8943;51.110;-4.158;2023-12-14T13:49:17;101814.59;;;16.56;55.54
17649;BME280;8943;51.110;-4.158;2023-12-14T13:51:55;101830.50;;;16.59;55.75
17649;BME280;8943;51.110;-4.158;2023-12-14T13:57:26;101833.78;;;16.63;55.64
17649;BME280;8943;51.110;-4.158;2023-12-14T13:59:55;101833.06;;;16.72;55.26
17649;BME280;8943;51.110;-4.158;2023-12-14T14:02:43;101834.38;;;16.66;55.26
17649;BME280;8943;51.110;-4.158;2023-12-14T14:05:40;101833.41;;;16.67;55.21
17649;BME280;8943;51.110;-4.158;2023-12-14T14:15:11;101846.75;;;16.46;54.77
17649;BME280;8943;51.110;-4.158;2023-12-14T14:17:40;101852.50;;;16.42;54.48
17649;BME280;8943;51.110;-4.158;2023-12-14T14:20:11;101857.03;;;16.41;54.12
17649;BME280;8943;51.110;-4.158;2023-12-14T14:22:42;101847.63;;;16.36;54.56
17649;BME280;8943;51.110;-4.158;2023-12-14T14:25:16;101853.84;;;16.47;54.25
17649;BME280;8943;51.110;-4.158;2023-12-14T14:27:49;101854.69;;;16.48;54.16
17649;BME280;8943;51.110;-4.158;2023-12-14T14:37:40;101875.53;;;17.12;53.25
17649;BME280;8943;51.110;-4.158;2023-12-14T14:40:25;101878.94;;;17.25;52.70
17649;BME280;8943;51.110;-4.158;2023-12-14T14:43:12;101885.66;;;17.31;51.86
17649;BME280;8943;51.110;-4.158;2023-12-14T14:46:09;101886.41;;;17.21;51.58
17649;BME280;8943;51.110;-4.158;2023-12-14T14:48:52;101882.06;;;17.09;51.27
17649;BME280;8943;51.110;-4.158;2023-12-14T14:51:23;101881.19;;;16.97;51.35
17649;BME280;8943;51.110;-4.158;2023-12-14T14:53:56;101887.94;;;16.92;51.55
17649;BME280;8943;51.110;-4.158;2023-12-14T14:59:31;101900.69;;;16.67;51.71
17649;BME280;8943;51.110;-4.158;2023-12-14T15:02:01;101891.50;;;16.59;51.65
17649;BME280;8943;51.110;-4.158;2023-12-14T15:04:35;101902.13;;;16.49;51.75